Time;durP1;ratioP1;P1;durP2;ratioP2;P2;SDS_P1;SDS_P2;PMS_P1;PMS_P2;Temp;Humidity;BMP_temperature;BMP_pressure;BME280_temperature;BME280_humidity;BME280_pressure;Samples;Min_cycle;Max_cycle;Signal;HPM_P1;HPM_P2
2022/09/16 04:17:21;;;;;;;8.52;5.55;;;;;;;13.92;100.00;99663.41;5089369;23;20185;-71
2022/09/16 04:19:46;;;;;;;8.18;4.90;;;;;;;13.87;100.00;99668.56;4974592;28;20110;-72
2022/09/16 04:22:11;;;;;;;13.07;5.95;;;;;;;13.87;100.00;99673.91;4974278;28;20031;-72
2022/09/16 04:24:37;;;;;;;15.10;6.20;;;;;;;13.88;100.00;99672.03;4975855;28;20521;-71
2022/09/16 04:27:02;;;;;;;12.70;6.80;;;;;;;13.90;100.00;99667.31;4975686;28;20035;-71
2022/09/16 04:29:28;;;;;;;13.35;6.60;;;;;;;13.94;100.00;99671.22;4976037;28;20435;-73
2022/09/16 04:31:54;;;;;;;12.48;5.65;;;;;;;13.91;100.00;99667.09;4975431;28;20508;-71
2022/09/16 04:34:19;;;;;;;10.20;5.97;;;;;;;13.89;100.00;99669.19;4975830;28;20558;-71
2022/09/16 04:36:45;;;;;;;10.02;5.60;;;;;;;13.92;100.00;99673.28;4975512;28;20035;-71
2022/09/16 04:39:11;;;;;;;10.80;5.90;;;;;;;13.92;100.00;99670.59;4976377;28;20038;-71
2022/09/16 04:41:37;;;;;;;13.23;5.13;;;;;;;13.94;100.00;99671.22;4975534;28;20038;-72
2022/09/16 04:44:03;;;;;;;10.98;5.28;;;;;;;13.96;100.00;99674.53;4975492;28;20033;-71
2022/09/16 04:46:31;;;;;;;9.55;4.97;;;;;;;13.92;100.00;99679.47;4975364;28;20054;-71
2022/09/16 04:48:57;;;;;;;10.10;5.57;;;;;;;13.89;100.00;99668.34;4975442;28;20049;-71
2022/09/16 04:51:26;;;;;;;10.43;6.00;;;;;;;13.89;100.00;99665.66;4973790;28;20042;-71
2022/09/16 04:53:53;;;;;;;14.25;7.55;;;;;;;13.91;100.00;99668.97;4974183;28;20070;-71
2022/09/16 04:56:21;;;;;;;10.25;5.22;;;;;;;13.90;100.00;99662.78;4974707;28;20035;-71
2022/09/16 04:58:52;;;;;;;9.48;5.00;;;;;;;13.88;100.00;99677.41;4975211;28;20034;-71
2022/09/16 05:01:24;;;;;;;12.05;5.82;;;;;;;13.83;100.00;99675.38;4974828;28;20046;-71
2022/09/16 05:03:53;;;;;;;16.27;6.00;;;;;;;13.83;100.00;99681.53;4975186;28;20089;-71
2022/09/16 05:06:21;;;;;;;11.10;5.40;;;;;;;13.85;100.00;99673.28;4974878;28;20038;-71
2022/09/16 05:08:46;;;;;;;;;;;;;;;13.81;100.00;99672.88;4975547;28;20505;-71
2022/09/16 05:11:15;;;;;;;13.63;5.60;;;;;;;13.83;100.00;99670.84;4974873;28;19918;-71
2022/09/16 05:13:41;;;;;;;7.75;4.60;;;;;;;13.72;100.00;99676.00;4975265;28;20085;-71
2022/09/16 05:16:09;;;;;;;12.25;4.75;;;;;;;13.73;100.00;99681.13;4974825;28;20038;-71
2022/09/16 05:18:35;;;;;;;;;;;;;;;13.67;100.00;99681.13;4975286;28;20166;-71
2022/09/16 05:21:03;;;;;;;10.13;4.82;;;;;;;13.72;100.00;99684.84;4974631;28;20576;-71
2022/09/16 05:23:29;;;;;;;9.25;4.30;;;;;;;13.63;100.00;99680.75;4973587;28;20039;-71
2022/09/16 05:25:54;;;;;;;9.68;4.28;;;;;;;13.61;100.00;99681.97;4974707;28;20092;-71
2022/09/16 05:28:20;;;;;;;8.00;3.97;;;;;;;13.64;100.00;99673.53;4974703;28;20046;-71
2022/09/16 05:30:46;;;;;;;13.38;4.38;;;;;;;13.62;100.00;99676.38;4974368;28;20490;-70
2022/09/16 05:33:12;;;;;;;7.40;4.47;;;;;;;13.57;100.00;99679.72;4975552;28;20458;-62
2022/09/16 05:35:37;;;;;;;10.65;4.53;;;;;;;13.58;100.00;99676.00;4974483;28;20446;-63
2022/09/16 05:38:03;;;;;;;8.50;4.32;;;;;;;13.51;100.00;99677.84;4974388;28;20042;-64
2022/09/16 05:40:28;;;;;;;11.15;4.40;;;;;;;13.56;100.00;99679.88;4973996;28;20041;-62
2022/09/16 05:42:54;;;;;;;7.00;3.78;;;;;;;13.49;100.00;99668.38;4974312;28;20494;-61
2022/09/16 05:45:20;;;;;;;10.38;4.22;;;;;;;13.56;100.00;99675.38;4974207;28;20058;-62
2022/09/16 05:47:49;;;;;;;8.30;4.20;;;;;;;13.55;100.00;99678.25;4974271;28;20129;-62
2022/09/16 05:50:15;;;;;;;7.82;4.55;;;;;;;13.54;100.00;99677.44;4973814;28;20536;-63
2022/09/16 05:52:40;;;;;;;7.97;4.22;;;;;;;13.56;100.00;99683.41;4974006;28;20066;-63
2022/09/16 05:55:06;;;;;;;12.30;4.45;;;;;;;13.49;100.00;99679.88;4973926;28;20045;-62
2022/09/16 05:57:31;;;;;;;12.25;4.82;;;;;;;13.51;100.00;99685.88;4973963;28;20077;-64
2022/09/16 05:59:57;;;;;;;7.97;4.35;;;;;;;13.52;100.00;99689.38;4973897;28;20098;-63
2022/09/16 06:02:22;;;;;;;10.40;4.50;;;;;;;13.47;100.00;99694.50;4972519;28;20557;-62
2022/09/16 06:04:47;;;;;;;6.78;3.95;;;;;;;13.40;100.00;99696.38;4972449;28;20045;-60
2022/09/16 06:07:13;;;;;;;10.02;4.30;;;;;;;13.43;100.00;99702.16;4955536;28;20556;-62
2022/09/16 06:09:38;;;;;;;11.48;4.57;;;;;;;13.38;100.00;99698.44;4974216;28;20114;-62
2022/09/16 06:12:04;;;;;;;7.18;4.13;;;;;;;13.38;100.00;99709.13;4973506;28;20445;-64
2022/09/16 06:14:29;;;;;;;11.25;4.53;;;;;;;13.37;100.00;99713.66;4973691;28;20062;-61
2022/09/16 06:16:55;;;;;;;11.10;5.07;;;;;;;13.38;100.00;99715.31;4973533;28;20488;-63
2022/09/16 06:19:21;;;;;;;8.50;4.57;;;;;;;13.37;100.00;99707.50;4973394;28;20047;-62
2022/09/16 06:21:47;;;;;;;7.53;4.43;;;;;;;13.40;100.00;99707.88;4973240;28;20039;-64
2022/09/16 06:24:14;;;;;;;7.50;4.25;;;;;;;13.44;100.00;99708.31;4973557;28;20039;-61
2022/09/16 06:26:41;;;;;;;8.45;4.60;;;;;;;13.46;100.00;99708.94;4973548;28;20046;-63
2022/09/16 06:29:08;;;;;;;7.73;4.73;;;;;;;13.41;100.00;99714.88;4973523;28;20478;-61
2022/09/16 06:31:35;;;;;;;8.65;4.45;;;;;;;13.42;100.00;99721.88;4973188;28;20294;-63
2022/09/16 06:34:01;;;;;;;12.25;4.22;;;;;;;13.37;100.00;99710.16;4973470;28;20042;-64
2022/09/16 06:36:29;;;;;;;8.95;4.70;;;;;;;13.40;100.00;99712.41;4973371;28;20047;-63
2022/09/16 06:38:55;;;;;;;8.88;4.30;;;;;;;13.37;100.00;99707.50;4973319;28;20042;-63
2022/09/16 06:41:21;;;;;;;12.07;4.70;;;;;;;13.34;100.00;99703.34;4972908;28;20497;-63
2022/09/16 06:43:50;;;;;;;9.57;4.85;;;;;;;13.36;100.00;99703.13;4973305;28;20142;-61
2022/09/16 06:46:19;;;;;;;10.60;5.13;;;;;;;13.35;100.00;99701.50;4973242;28;20030;-63
2022/09/16 06:48:46;;;;;;;10.38;4.80;;;;;;;13.30;100.00;99700.28;4973119;28;20046;-62
2022/09/16 06:51:17;;;;;;;15.23;5.13;;;;;;;13.34;100.00;99706.03;4972860;28;20069;-61
2022/09/16 06:53:43;;;;;;;11.98;5.25;;;;;;;13.34;100.00;99710.56;4973147;28;20038;-63
2022/09/16 06:56:11;;;;;;;11.20;4.88;;;;;;;13.30;100.00;99707.44;4973122;28;20058;-63
2022/09/16 06:58:38;;;;;;;;;;;;;;;13.33;100.00;99700.88;4973619;28;20453;-64
2022/09/16 07:01:18;;;;;;;10.30;4.18;;;;;;;13.32;100.00;99699.25;4972802;28;19957;-64
2022/09/16 07:03:46;;;;;;;11.65;5.22;;;;;;;13.29;100.00;99703.94;4972991;28;20038;-63
2022/09/16 07:06:13;;;;;;;10.13;4.90;;;;;;;13.31;100.00;99703.78;4972942;28;20030;-64
2022/09/16 07:08:39;;;;;;;10.45;4.55;;;;;;;13.33;100.00;99709.72;4973326;28;20383;-64
2022/09/16 07:11:13;;;;;;;9.82;5.28;;;;;;;13.32;100.00;99710.75;4973056;28;20109;-64
2022/09/16 07:13:39;;;;;;;11.00;4.53;;;;;;;13.34;100.00;99708.69;4972945;28;20039;-64
2022/09/16 07:16:08;;;;;;;11.93;5.13;;;;;;;13.36;100.00;99712.00;4972623;28;20415;-64
2022/09/16 07:18:34;;;;;;;8.73;4.95;;;;;;;13.30;100.00;99708.31;4972665;28;20073;-64
2022/09/16 07:21:04;;;;;;;9.07;4.65;;;;;;;13.36;100.00;99716.50;4972621;28;20082;-65
2022/09/16 07:23:31;;;;;;;15.68;5.53;;;;;;;13.39;100.00;99718.78;4972808;28;20043;-64
2022/09/16 07:26:08;;;;;;;10.10;4.43;;;;;;;13.40;100.00;99712.41;4972751;28;20161;-65
2022/09/16 07:28:35;;;;;;;11.57;5.15;;;;;;;13.53;100.00;99712.44;4972698;28;20282;-64
2022/09/16 07:31:08;;;;;;;10.68;5.30;;;;;;;13.54;100.00;99706.03;4972453;28;20066;-63
2022/09/16 07:33:38;;;;;;;8.98;4.78;;;;;;;13.61;100.00;99714.06;4972666;28;20147;-63
2022/09/16 07:36:05;;;;;;;10.40;4.93;;;;;;;13.65;100.00;99713.47;4972722;28;20034;-62
2022/09/16 07:38:32;;;;;;;12.15;5.10;;;;;;;13.70;100.00;99713.69;4972731;28;20101;-63
2022/09/16 07:41:18;;;;;;;9.10;4.55;;;;;;;13.77;100.00;99717.16;4971193;28;20137;-63
2022/09/16 07:43:44;;;;;;;7.55;4.45;;;;;;;13.88;100.00;99720.22;4972666;28;20130;-63
2022/09/16 07:46:12;;;;;;;9.95;6.03;;;;;;;13.98;100.00;99728.69;4972492;28;20467;-63
2022/09/16 07:48:37;;;;;;;;;;;;;;;14.00;100.00;99724.75;4972965;28;20039;-63
2022/09/16 07:51:12;;;;;;;7.75;4.63;;;;;;;14.03;100.00;99721.69;4972333;28;19920;-63
2022/09/16 07:53:37;;;;;;;13.27;5.63;;;;;;;14.00;100.00;99724.75;4971430;28;20482;-62
2022/09/16 07:56:05;;;;;;;12.13;5.90;;;;;;;14.05;100.00;99727.63;4972482;28;20054;-63
2022/09/16 07:58:31;;;;;;;;;;;;;;;14.11;100.00;99729.47;4973115;28;20418;-61
2022/09/16 08:00:57;;;;;;;10.23;4.80;;;;;;;14.16;100.00;99744.13;4972026;28;19925;-62
2022/09/16 08:03:23;;;;;;;14.68;5.60;;;;;;;14.19;100.00;99739.16;4972401;28;20039;-63
2022/09/16 08:05:48;;;;;;;10.75;4.50;;;;;;;14.11;100.00;99742.06;4972237;28;20051;-61
2022/09/16 08:08:14;;;;;;;13.38;4.55;;;;;;;14.11;100.00;99742.88;4972276;28;20043;-62
2022/09/16 08:10:39;;;;;;;11.25;5.20;;;;;;;14.10;100.00;99741.22;4972311;28;20411;-63
2022/09/16 08:13:06;;;;;;;7.75;4.22;;;;;;;14.13;100.00;99745.34;4972287;28;20102;-63
2022/09/16 08:15:32;;;;;;;10.67;4.97;;;;;;;14.21;100.00;99741.63;4972002;28;20137;-63
2022/09/16 08:17:57;;;;;;;10.10;4.88;;;;;;;14.18;100.00;99748.22;4972477;28;20122;-62
2022/09/16 08:20:31;;;;;;;9.45;3.63;;;;;;;14.13;100.00;99745.34;4971933;28;20035;-63
2022/09/16 08:22:57;;;;;;;10.35;4.40;;;;;;;14.19;100.00;99746.38;4972260;28;20142;-63
2022/09/16 08:25:23;;;;;;;8.70;4.88;;;;;;;14.16;100.00;99752.97;4972179;28;20131;-61
2022/09/16 08:27:48;;;;;;;8.55;4.75;;;;;;;14.12;100.00;99757.09;4972223;28;20038;-63
2022/09/16 08:30:14;;;;;;;15.40;5.40;;;;;;;14.12;100.00;99754.41;4972030;28;20469;-62
2022/09/16 08:32:39;;;;;;;12.07;5.05;;;;;;;14.13;100.00;99754.19;4975645;28;20045;-63
2022/09/16 08:35:05;;;;;;;10.23;4.93;;;;;;;14.14;100.00;99749.66;4975610;28;20051;-63
2022/09/16 08:37:30;;;;;;;10.45;5.15;;;;;;;14.16;100.00;99746.78;4975446;28;20046;-63
2022/09/16 08:39:56;;;;;;;8.77;5.18;;;;;;;14.23;100.00;99748.44;4973910;28;20046;-63
2022/09/16 08:42:38;;;;;;;8.02;4.70;;;;;;;14.26;100.00;99752.53;4974054;28;20409;-62
2022/09/16 08:45:39;;;;;;;13.60;5.28;;;;;;;14.27;100.00;99751.50;4974253;28;20468;-62
2022/09/16 08:48:31;;;;;;;9.07;5.00;;;;;;;14.24;100.00;99758.09;4975391;28;20034;-63
2022/09/16 08:51:01;;;;;;;13.98;5.43;;;;;;;14.34;100.00;99757.66;4974961;28;20027;-63
2022/09/16 08:53:34;;;;;;;13.38;5.43;;;;;;;14.35;100.00;99762.00;4975208;28;20053;-63
2022/09/16 08:56:03;;;;;;;11.90;5.55;;;;;;;14.37;100.00;99763.44;4975025;28;20100;-63
2022/09/16 08:58:39;;;;;;;9.40;4.95;;;;;;;14.28;100.00;99759.34;4975017;28;20042;-63
2022/09/16 09:01:17;;;;;;;7.85;4.65;;;;;;;14.35;100.00;99762.84;4974821;28;20039;-62
2022/09/16 09:03:45;;;;;;;10.77;5.10;;;;;;;14.34;100.00;99771.06;4973840;28;20049;-63
2022/09/16 09:06:27;;;;;;;7.60;3.97;;;;;;;14.24;100.00;99771.50;4973568;28;20043;-62
2022/09/16 09:09:07;;;;;;;10.13;4.82;;;;;;;14.23;100.00;99769.84;4974986;28;20041;-62
2022/09/16 09:11:58;;;;;;;7.30;3.90;;;;;;;14.19;100.00;99771.28;4974671;28;20031;-62
2022/09/16 09:14:36;;;;;;;8.90;4.40;;;;;;;14.16;100.00;99770.91;4973516;28;20486;-62
2022/09/16 09:17:10;;;;;;;9.68;5.07;;;;;;;14.10;100.00;99772.56;4974667;28;20031;-62
2022/09/16 09:19:51;;;;;;;8.90;3.88;;;;;;;14.16;100.00;99771.72;4974570;28;20042;-62
2022/09/16 09:23:07;;;;;;;11.35;4.65;;;;;;;14.11;100.00;99772.34;4974530;28;20035;-61
2022/09/16 09:25:45;;;;;;;7.63;3.92;;;;;;;14.05;100.00;99757.09;4941308;28;20457;-61
2022/09/16 09:28:16;;;;;;;;;;;;;;;14.12;100.00;99778.50;4975058;28;20035;-63
2022/09/16 09:30:56;;;;;;;9.43;4.47;;;;;;;14.12;100.00;99773.97;4973009;28;19952;-63
2022/09/16 09:33:55;;;;;;;7.70;4.30;;;;;;;14.13;100.00;99777.47;4974542;28;20043;-61
2022/09/16 09:36:40;;;;;;;10.63;4.03;;;;;;;14.15;100.00;99785.28;4974685;28;20393;-63
2022/09/16 09:39:17;;;;;;;10.93;3.90;;;;;;;14.05;100.00;99775.84;4974364;28;20034;-63
2022/09/16 09:41:49;;;;;;;10.15;4.97;;;;;;;14.11;100.00;99777.69;4973898;28;20053;-63
2022/09/16 09:44:38;;;;;;;9.60;4.30;;;;;;;14.12;100.00;99773.16;4972923;28;20418;-63
2022/09/16 09:47:42;;;;;;;8.77;4.43;;;;;;;14.10;100.00;99772.56;4974215;28;20035;-61
2022/09/16 09:50:32;;;;;;;8.05;3.85;;;;;;;14.13;100.00;99774.78;4974058;28;20041;-63
2022/09/16 09:53:24;;;;;;;10.82;4.63;;;;;;;14.09;100.00;99776.25;4974324;28;20043;-63
2022/09/16 09:56:17;;;;;;;8.02;4.25;;;;;;;14.09;100.00;99777.09;4974181;28;20557;-63
2022/09/16 09:59:21;;;;;;;8.00;4.43;;;;;;;14.08;100.00;99770.09;4973986;28;20031;-63
2022/09/16 10:01:52;;;;;;;9.70;4.47;;;;;;;14.04;100.00;99773.38;4943589;28;20109;-63
2022/09/16 10:04:18;;;;;;;9.93;4.90;;;;;;;14.03;100.00;99769.06;4974036;28;20077;-63
2022/09/16 10:06:44;;;;;;;15.50;6.05;;;;;;;13.99;100.00;99773.16;4956533;28;20062;-63
2022/09/16 10:09:15;;;;;;;10.07;4.50;;;;;;;14.06;100.00;99776.66;4973892;28;20438;-62
2022/09/16 10:11:48;;;;;;;8.75;4.53;;;;;;;14.05;100.00;99781.19;4973432;28;20031;-62
2022/09/16 10:14:30;;;;;;;10.70;4.68;;;;;;;14.04;100.00;99778.72;4973596;28;20417;-61
2022/09/16 10:16:59;;;;;;;9.40;4.47;;;;;;;13.99;100.00;99779.34;4973558;28;20129;-62
2022/09/16 10:19:27;;;;;;;10.02;5.05;;;;;;;14.06;100.00;99785.50;4973688;28;20223;-63
2022/09/16 10:21:55;;;;;;;9.45;4.65;;;;;;;14.11;100.00;99783.06;4973226;28;20042;-63
2022/09/16 10:24:28;;;;;;;12.88;4.82;;;;;;;14.11;100.00;99771.50;4973492;28;20042;-62
2022/09/16 10:26:55;;;;;;;11.63;5.53;;;;;;;14.08;100.00;99770.09;4973435;28;20601;-62
2022/09/16 10:29:21;;;;;;;8.65;4.15;;;;;;;14.16;100.00;99776.25;4996825;23;20043;-65
2022/09/16 10:31:47;;;;;;;9.13;4.13;;;;;;;14.13;100.00;99772.13;4973027;28;20054;-65
2022/09/16 10:34:22;;;;;;;9.77;4.20;;;;;;;14.20;100.00;99764.91;4972148;28;20045;-65
2022/09/16 10:36:59;;;;;;;7.65;4.97;;;;;;;14.31;100.00;99763.44;4973386;28;20039;-65
2022/09/16 10:39:26;;;;;;;13.07;5.10;;;;;;;14.37;100.00;99768.78;4973042;28;20470;-64
2022/09/16 10:41:52;;;;;;;10.90;4.50;;;;;;;14.46;100.00;99769.41;4972938;28;20125;-65
2022/09/16 10:44:32;;;;;;;7.57;4.38;;;;;;;14.57;100.00;99776.00;4973214;28;20153;-65
2022/09/16 10:47:01;;;;;;;9.63;4.38;;;;;;;14.67;100.00;99768.34;4973172;28;20404;-65
2022/09/16 10:49:39;;;;;;;9.70;4.82;;;;;;;14.70;100.00;99765.22;4972987;28;20078;-65
2022/09/16 10:52:14;;;;;;;8.82;4.40;;;;;;;14.81;100.00;99769.13;4972568;28;20038;-65
2022/09/16 10:54:40;;;;;;;7.43;4.22;;;;;;;14.98;100.00;99764.91;4973146;28;20050;-65
2022/09/16 10:57:25;;;;;;;11.02;4.05;;;;;;;15.21;100.00;99764.38;4972876;28;20410;-65
2022/09/16 11:00:17;;;;;;;7.00;4.70;;;;;;;15.46;100.00;99769.81;4971023;28;20414;-65
2022/09/16 11:03:04;;;;;;;9.25;4.18;;;;;;;15.70;100.00;99765.53;4970744;28;20102;-65
2022/09/16 11:05:58;;;;;;;10.93;4.78;;;;;;;15.96;96.82;99770.69;4972781;28;20062;-65
2022/09/16 11:08:42;;;;;;;11.18;5.35;;;;;;;16.19;95.43;99774.63;4973046;28;20035;-64
2022/09/16 11:11:32;;;;;;;9.43;4.88;;;;;;;16.37;94.77;99777.34;4972415;28;20050;-65
2022/09/16 11:14:23;;;;;;;11.30;4.63;;;;;;;16.70;91.15;99778.91;4972772;28;20034;-64
2022/09/16 11:17:12;;;;;;;6.63;3.60;;;;;;;17.07;89.27;99764.34;4971549;28;20035;-65
2022/09/16 11:20:14;;;;;;;9.40;3.88;;;;;;;17.28;90.44;99773.00;4971398;28;20035;-64
2022/09/16 11:23:03;;;;;;;5.70;4.18;;;;;;;17.21;86.43;99764.16;4972757;28;20493;-67
2022/09/16 11:25:52;;;;;;;6.55;4.10;;;;;;;17.30;84.71;99770.91;4972864;28;20034;-64
2022/09/16 11:28:32;;;;;;;7.45;3.75;;;;;;;17.41;86.35;99770.13;4972390;28;20097;-64
2022/09/16 11:31:39;;;;;;;6.75;3.38;;;;;;;17.76;84.92;99758.63;4972179;28;20498;-64
2022/09/16 11:34:20;;;;;;;9.90;4.00;;;;;;;18.18;79.81;99770.97;4972498;28;20490;-63
2022/09/16 11:36:55;;;;;;;6.50;3.22;;;;;;;18.72;79.43;99762.75;4972375;28;20050;-64
2022/09/16 11:39:43;;;;;;;6.32;3.15;;;;;;;18.49;77.35;99754.66;4972529;28;20046;-64
2022/09/16 11:42:08;;;;;;;;;;;;;;;18.56;78.62;99752.66;4971443;28;20486;-64
2022/09/16 11:44:42;;;;;;;8.63;2.95;;;;;;;18.40;76.63;99746.94;4972575;28;20060;-64
2022/09/16 11:47:22;;;;;;;3.47;2.38;;;;;;;19.38;72.23;99744.31;4972441;28;20065;-65
2022/09/16 11:50:16;;;;;;;4.45;2.65;;;;;;;19.87;68.09;99744.63;4972277;28;20039;-64
2022/09/16 11:53:00;;;;;;;5.13;2.08;;;;;;;19.24;65.58;99741.09;4971177;28;20401;-64
2022/09/16 11:55:53;;;;;;;6.57;2.00;;;;;;;19.29;69.35;99751.97;4972319;28;20070;-64
2022/09/16 11:58:59;;;;;;;4.38;2.20;;;;;;;19.01;73.10;99744.69;4971357;28;20464;-64
2022/09/16 12:01:54;;;;;;;3.25;1.60;;;;;;;19.11;74.84;99739.50;4972037;28;20486;-64
2022/09/16 12:04:29;;;;;;;4.00;2.00;;;;;;;18.83;74.32;99734.09;4944172;28;20494;-64
2022/09/16 12:07:02;;;;;;;4.95;2.45;;;;;;;19.60;73.56;99723.66;4975985;28;20034;-65
2022/09/16 12:09:41;;;;;;;4.60;2.13;;;;;;;20.33;69.21;99732.59;4975835;28;20055;-64
2022/09/16 12:12:18;;;;;;;2.53;1.58;;;;;;;20.94;64.03;99729.91;4975587;28;20494;-64
2022/09/16 12:14:57;;;;;;;3.13;1.90;;;;;;;20.79;62.87;99731.31;4976122;28;20073;-64
2022/09/16 12:17:27;;;;;;;3.78;1.80;;;;;;;20.63;63.00;99715.19;4975880;28;20117;-64
2022/09/16 12:20:04;;;;;;;3.88;1.58;;;;;;;20.33;65.22;99722.59;4975648;28;20038;-64
2022/09/16 12:22:40;;;;;;;;;;;;;;;20.28;57.20;99714.44;4976069;28;20125;-64
2022/09/16 12:25:14;;;;;;;1.70;1.35;;;;;;;20.32;57.05;99717.44;4975644;28;19914;-64
2022/09/16 12:27:54;;;;;;;1.55;1.38;;;;;;;20.73;55.34;99720.69;4975426;28;20038;-64
2022/09/16 12:30:24;;;;;;;2.15;1.27;;;;;;;21.16;51.15;99719.00;4975148;28;20085;-65
2022/09/16 12:33:12;;;;;;;3.08;1.52;;;;;;;21.19;48.94;99708.50;4975366;28;20523;-65
2022/09/16 12:36:03;;;;;;;3.00;0.98;;;;;;;20.30;52.39;99715.00;4965011;28;20057;-64
2022/09/16 12:38:28;;;;;;;2.25;1.08;;;;;;;20.18;55.79;99714.28;4975472;28;20500;-65
2022/09/16 12:41:27;;;;;;;1.00;0.90;;;;;;;20.39;54.25;99704.56;4974971;28;20125;-64
2022/09/16 12:44:30;;;;;;;1.42;1.00;;;;;;;19.81;55.74;99711.28;4975486;28;20034;-64
2022/09/16 12:47:13;;;;;;;1.20;0.88;;;;;;;19.16;57.73;99703.69;4973994;28;20125;-65
2022/09/16 12:49:48;;;;;;;1.17;0.98;;;;;;;19.07;56.70;99705.94;4975028;28;20041;-64
2022/09/16 12:52:40;;;;;;;1.50;1.15;;;;;;;18.74;58.77;99703.97;4975000;28;20039;-64
2022/09/16 12:55:24;;;;;;;1.23;0.95;;;;;;;18.26;60.93;99705.13;4975070;28;20421;-64
2022/09/16 12:58:18;;;;;;;0.93;0.93;;;;;;;17.92;62.35;99695.16;4973666;28;20035;-66
2022/09/16 13:00:57;;;;;;;2.13;1.35;;;;;;;17.70;64.33;99693.00;4974786;28;20027;-64
2022/09/16 13:03:27;;;;;;;4.55;1.10;;;;;;;17.53;64.07;99689.34;4975032;28;20043;-65
2022/09/16 13:05:56;;;;;;;2.78;1.27;;;;;;;17.61;63.25;99700.63;4975014;28;20066;-64
2022/09/16 13:08:30;;;;;;;5.57;1.10;;;;;;;17.71;65.79;99694.69;4974807;28;20517;-64
2022/09/16 13:11:02;;;;;;;4.72;1.55;;;;;;;17.68;66.33;99686.22;4973290;28;20070;-64
2022/09/16 13:13:44;;;;;;;1.80;1.10;;;;;;;17.57;66.85;99691.34;4975091;28;20437;-64
2022/09/16 13:16:10;;;;;;;3.35;1.23;;;;;;;17.28;65.24;99684.19;4974447;28;20393;-64
2022/09/16 13:18:49;;;;;;;1.67;0.80;;;;;;;17.24;65.03;99681.13;4973521;28;20035;-65
2022/09/16 13:21:26;;;;;;;1.13;0.90;;;;;;;17.20;66.03;99673.72;4974255;28;20035;-65
2022/09/16 13:24:31;;;;;;;1.70;1.23;;;;;;;17.19;67.73;99678.28;4974541;28;20528;-64
2022/09/16 13:26:56;;;;;;;2.08;1.13;;;;;;;17.44;67.83;99678.13;4974586;28;20510;-66
2022/09/16 13:29:43;;;;;;;3.95;1.55;;;;;;;17.57;68.62;99674.38;4974375;28;20038;-66
2022/09/16 13:32:55;;;;;;;1.13;0.80;;;;;;;17.78;66.38;99670.31;4974201;28;20066;-66
2022/09/16 13:35:30;;;;;;;1.15;0.90;;;;;;;17.88;65.96;99668.69;4895787;29;20052;-66
2022/09/16 13:37:58;;;;;;;3.38;1.05;;;;;;;17.92;66.82;99670.91;4969174;28;20054;-65
2022/09/16 13:40:27;;;;;;;2.85;1.23;;;;;;;17.79;68.05;99667.38;4974054;28;20122;-65
2022/09/16 13:43:07;;;;;;;3.20;0.93;;;;;;;17.79;64.81;99669.25;4974211;28;20047;-65
2022/09/16 13:45:41;;;;;;;2.55;1.10;;;;;;;17.66;61.03;99662.19;4974212;28;20106;-65
2022/09/16 13:48:19;;;;;;;1.40;0.93;;;;;;;17.73;62.78;99659.44;4973982;28;20031;-65
2022/09/16 13:50:50;;;;;;;;;;;;;;;17.88;60.29;99663.31;4974129;28;20512;-66
2022/09/16 13:53:31;;;;;;;2.28;0.90;;;;;;;17.88;58.59;99659.81;4973974;28;20028;-66
2022/09/16 13:56:24;;;;;;;3.17;1.45;;;;;;;17.88;58.84;99666.00;4974077;28;20050;-66
2022/09/16 13:58:56;;;;;;;3.80;0.82;;;;;;;17.76;61.82;99667.88;4974235;28;20034;-66
2022/09/16 14:01:33;;;;;;;1.70;1.02;;;;;;;17.71;59.70;99665.06;4973745;28;20042;-64
2022/09/16 14:04:01;;;;;;;1.20;0.80;;;;;;;17.80;59.31;99660.13;4973980;28;20031;-64
2022/09/16 14:06:46;;;;;;;0.93;0.73;;;;;;;17.73;59.79;99662.94;4973978;28;20383;-64
2022/09/16 14:09:29;;;;;;;2.17;0.90;;;;;;;17.68;61.14;99653.91;4974122;28;20069;-64
2022/09/16 14:12:22;;;;;;;2.05;0.80;;;;;;;17.83;61.19;99657.81;4973734;28;20096;-64
2022/09/16 14:14:49;;;;;;;1.65;1.05;;;;;;;18.06;65.80;99659.66;4973802;28;20050;-64
2022/09/16 14:17:40;;;;;;;0.75;0.75;;;;;;;18.31;62.88;99663.94;4972372;28;20046;-64
2022/09/16 14:20:16;;;;;;;1.17;1.00;;;;;;;18.48;60.81;99656.75;4973728;28;20035;-64
2022/09/16 14:22:46;;;;;;;1.77;0.98;;;;;;;18.60;56.65;99656.72;4973761;28;20431;-64
2022/09/16 14:25:27;;;;;;;2.90;1.10;;;;;;;18.62;60.40;99650.03;4973555;28;20049;-64
2022/09/16 14:28:06;;;;;;;1.42;0.75;;;;;;;18.56;58.02;99644.78;4972588;28;20093;-64
2022/09/16 14:30:31;;;;;;;0.68;0.68;;;;;;;18.53;58.01;99648.78;4971957;28;20043;-64
2022/09/16 14:32:57;;;;;;;1.17;0.77;;;;;;;18.58;53.91;99654.28;4973516;28;20142;-64
2022/09/16 14:35:28;;;;;;;1.50;0.90;;;;;;;18.59;52.87;99649.72;4972113;28;20039;-65
2022/09/16 14:38:00;;;;;;;1.05;0.70;;;;;;;18.56;52.42;99645.59;4973233;28;20071;-64
2022/09/16 14:40:28;;;;;;;1.52;0.80;;;;;;;18.58;53.12;99648.88;4972959;28;20035;-64
2022/09/16 14:42:58;;;;;;;1.88;1.10;;;;;;;18.51;52.59;99647.38;4973121;28;20085;-64
2022/09/16 14:45:24;;;;;;;1.17;0.70;;;;;;;18.56;53.93;99645.59;4973110;28;20050;-65
2022/09/16 14:47:53;;;;;;;2.75;0.80;;;;;;;18.58;54.06;99646.19;4973080;28;20108;-64
2022/09/16 14:50:23;;;;;;;0.50;0.50;;;;;;;18.29;52.95;99648.00;4972651;28;20044;-64
2022/09/16 14:52:54;;;;;;;1.35;0.73;;;;;;;18.29;52.16;99655.28;4972962;28;20548;-65
2022/09/16 14:55:21;;;;;;;1.17;0.70;;;;;;;18.29;51.70;99641.81;4972946;28;20038;-64
2022/09/16 14:57:47;;;;;;;0.60;0.60;;;;;;;18.31;50.67;99643.19;4972888;28;20126;-64
2022/09/16 15:00:15;;;;;;;0.93;0.63;;;;;;;18.26;50.26;99639.59;4972450;28;20034;-64
2022/09/16 15:02:53;;;;;;;1.20;0.57;;;;;;;18.24;50.56;99644.38;4972799;28;20035;-65
2022/09/16 15:05:22;;;;;;;0.55;0.55;;;;;;;18.21;52.72;99644.88;4972747;28;20047;-65
2022/09/16 15:07:49;;;;;;;1.88;0.82;;;;;;;18.24;50.99;99642.50;4972570;28;20034;-65
2022/09/16 15:10:20;;;;;;;;;;;;;;;18.22;52.36;99647.34;4972815;28;20042;-65
2022/09/16 15:12:51;;;;;;;0.65;0.65;;;;;;;18.13;49.41;99646.88;4972802;28;19918;-64
2022/09/16 15:15:23;;;;;;;1.10;0.70;;;;;;;17.91;48.95;99643.16;4972674;28;20051;-64
2022/09/16 15:18:04;;;;;;;1.42;0.75;;;;;;;17.78;50.46;99641.50;4972523;28;20046;-64
2022/09/16 15:20:34;;;;;;;2.17;0.77;;;;;;;17.85;51.30;99644.09;4972227;28;20034;-64
2022/09/16 15:23:01;;;;;;;2.22;0.70;;;;;;;17.85;51.56;99642.22;4972553;28;20042;-64
2022/09/16 15:25:33;;;;;;;1.02;0.75;;;;;;;17.89;52.00;99647.97;4972476;28;20046;-65
2022/09/16 15:28:16;;;;;;;0.90;0.70;;;;;;;17.85;53.05;99647.59;4972136;28;20035;-64
2022/09/16 15:30:49;;;;;;;0.88;0.55;;;;;;;17.82;51.64;99639.19;4972111;28;20125;-65
2022/09/16 15:33:36;;;;;;;1.35;0.85;;;;;;;17.82;54.12;99647.25;4972446;28;20047;-65
2022/09/16 15:36:02;;;;;;;0.63;0.63;;;;;;;17.82;54.07;99645.38;4972950;28;20121;-65
2022/09/16 15:38:30;;;;;;;0.90;0.60;;;;;;;17.82;54.46;99647.25;4972632;28;20286;-64
2022/09/16 15:41:24;;;;;;;1.25;0.55;;;;;;;17.77;53.40;99652.53;4976257;28;20062;-65
2022/09/16 15:43:50;;;;;;;1.15;0.60;;;;;;;17.82;52.89;99648.09;4959540;28;20138;-65
2022/09/16 15:46:21;;;;;;;2.05;0.75;;;;;;;17.71;53.01;99645.34;4976173;28;20081;-65
2022/09/16 15:48:50;;;;;;;1.50;0.77;;;;;;;17.79;52.22;99653.09;4976069;28;20039;-65
2022/09/16 15:51:37;;;;;;;3.30;1.63;;;;;;;17.75;54.43;99657.34;4975835;28;20039;-65
2022/09/16 15:54:25;;;;;;;1.13;0.70;;;;;;;17.68;54.02;99653.91;4976311;28;20122;-65
2022/09/16 15:57:20;;;;;;;3.95;0.80;;;;;;;17.55;54.28;99665.72;4976158;28;20494;-64
2022/09/16 16:00:10;;;;;;;0.63;0.57;;;;;;;17.51;54.50;99665.34;4972089;28;20047;-65
2022/09/16 16:02:52;;;;;;;0.68;0.50;;;;;;;17.36;55.11;99668.50;4975866;28;20034;-64
2022/09/16 16:05:21;;;;;;;0.93;0.60;;;;;;;17.24;54.01;99669.53;4975832;28;20497;-64
2022/09/16 16:07:49;;;;;;;2.83;1.15;;;;;;;17.22;55.53;99672.47;4975863;28;20047;-64
2022/09/16 16:10:20;;;;;;;0.77;0.60;;;;;;;17.13;56.23;99673.00;4975377;28;20051;-65
2022/09/16 16:12:48;;;;;;;2.10;0.80;;;;;;;17.03;57.82;99685.16;4975798;28;20461;-65
2022/09/16 16:15:28;;;;;;;1.60;0.70;;;;;;;16.91;57.42;99681.59;4976078;28;20047;-64
2022/09/16 16:17:58;;;;;;;1.20;0.60;;;;;;;16.95;55.97;99684.63;4975735;28;20445;-65